sensor_id;sensor_type;location;lat;lon;timestamp;P1;durP1;ratioP1;P2;durP2;ratioP2
9418;SDS011;4748;50.802;7.132;2023-06-26T03:32:37;3.15;;;2.90;;
9418;SDS011;4748;50.802;7.132;2023-06-26T03:35:02;5.20;;;3.58;;
9418;SDS011;4748;50.802;7.132;2023-06-26T03:37:28;3.08;;;2.88;;
9418;SDS011;4748;50.802;7.132;2023-06-26T03:39:54;3.05;;;2.72;;
9418;SDS011;4748;50.802;7.132;2023-06-26T03:42:20;5.22;;;3.28;;
9418;SDS011;4748;50.802;7.132;2023-06-26T03:44:45;3.58;;;3.28;;
9418;SDS011;4748;50.802;7.132;2023-06-26T03:47:10;8.68;;;3.65;;
9418;SDS011;4748;50.802;7.132;2023-06-26T03:49:36;11.27;;;2.72;;
9418;SDS011;4748;50.802;7.132;2023-06-26T03:52:01;3.40;;;3.20;;
9418;SDS011;4748;50.802;7.132;2023-06-26T03:54:26;3.03;;;2.83;;
9418;SDS011;4748;50.802;7.132;2023-06-26T03:56:52;2.90;;;2.63;;
9418;SDS011;4748;50.802;7.132;2023-06-26T03:59:17;2.92;;;2.67;;
9418;SDS011;4748;50.802;7.132;2023-06-26T04:01:42;2.92;;;2.70;;
9418;SDS011;4748;50.802;7.132;2023-06-26T04:04:08;2.15;;;2.05;;
9418;SDS011;4748;50.802;7.132;2023-06-26T04:06:33;3.55;;;2.75;;
9418;SDS011;4748;50.802;7.132;2023-06-26T04:08:59;4.15;;;2.70;;
9418;SDS011;4748;50.802;7.132;2023-06-26T04:11:24;4.40;;;2.33;;
9418;SDS011;4748;50.802;7.132;2023-06-26T04:13:50;2.50;;;2.30;;
9418;SDS011;4748;50.802;7.132;2023-06-26T04:16:16;2.28;;;2.08;;
9418;SDS011;4748;50.802;7.132;2023-06-26T04:18:41;5.28;;;2.50;;
9418;SDS011;4748;50.802;7.132;2023-06-26T04:21:07;2.33;;;2.13;;
9418;SDS011;4748;50.802;7.132;2023-06-26T04:23:36;3.50;;;2.63;;
9418;SDS011;4748;50.802;7.132;2023-06-26T04:26:01;3.47;;;3.20;;
9418;SDS011;4748;50.802;7.132;2023-06-26T04:28:27;2.78;;;2.58;;
9418;SDS011;4748;50.802;7.132;2023-06-26T04:30:53;2.60;;;2.40;;
9418;SDS011;4748;50.802;7.132;2023-06-26T04:33:19;4.10;;;2.42;;
9418;SDS011;4748;50.802;7.132;2023-06-26T04:35:44;9.10;;;2.80;;
9418;SDS011;4748;50.802;7.132;2023-06-26T04:38:10;3.38;;;2.83;;
9418;SDS011;4748;50.802;7.132;2023-06-26T04:40:36;2.45;;;2.33;;
9418;SDS011;4748;50.802;7.132;2023-06-26T04:43:01;3.50;;;2.63;;
9418;SDS011;4748;50.802;7.132;2023-06-26T04:45:26;3.50;;;2.67;;
9418;SDS011;4748;50.802;7.132;2023-06-26T04:47:52;3.08;;;2.55;;
9418;SDS011;4748;50.802;7.132;2023-06-26T04:50:17;3.05;;;2.83;;
9418;SDS011;4748;50.802;7.132;2023-06-26T04:52:44;6.05;;;2.80;;
9418;SDS011;4748;50.802;7.132;2023-06-26T04:55:09;2.33;;;2.20;;
9418;SDS011;4748;50.802;7.132;2023-06-26T04:57:35;2.33;;;2.22;;
9418;SDS011;4748;50.802;7.132;2023-06-26T05:00:00;2.80;;;2.60;;
9418;SDS011;4748;50.802;7.132;2023-06-26T05:02:25;4.70;;;2.20;;
9418;SDS011;4748;50.802;7.132;2023-06-26T05:04:51;2.65;;;2.45;;
9418;SDS011;4748;50.802;7.132;2023-06-26T05:07:17;2.25;;;2.13;;
9418;SDS011;4748;50.802;7.132;2023-06-26T05:09:42;5.05;;;2.42;;
9418;SDS011;4748;50.802;7.132;2023-06-26T05:12:08;2.00;;;1.90;;
9418;SDS011;4748;50.802;7.132;2023-06-26T05:14:33;3.08;;;2.95;;
9418;SDS011;4748;50.802;7.132;2023-06-26T05:16:58;3.58;;;2.33;;
9418;SDS011;4748;50.802;7.132;2023-06-26T05:19:24;3.88;;;2.28;;
9418;SDS011;4748;50.802;7.132;2023-06-26T05:21:49;2.63;;;1.92;;
9418;SDS011;4748;50.802;7.132;2023-06-26T05:24:15;1.92;;;1.83;;
9418;SDS011;4748;50.802;7.132;2023-06-26T05:26:42;2.65;;;2.13;;
9418;SDS011;4748;50.802;7.132;2023-06-26T05:29:07;2.35;;;2.00;;
9418;SDS011;4748;50.802;7.132;2023-06-26T05:31:33;2.88;;;1.88;;
9418;SDS011;4748;50.802;7.132;2023-06-26T05:34:05;3.00;;;2.53;;
9418;SDS011;4748;50.802;7.132;2023-06-26T05:36:33;2.28;;;2.08;;
9418;SDS011;4748;50.802;7.132;2023-06-26T05:38:59;2.47;;;2.38;;
9418;SDS011;4748;50.802;7.132;2023-06-26T05:41:24;3.10;;;1.92;;
9418;SDS011;4748;50.802;7.132;2023-06-26T05:43:50;5.60;;;2.55;;
9418;SDS011;4748;50.802;7.132;2023-06-26T05:46:15;3.10;;;2.25;;
9418;SDS011;4748;50.802;7.132;2023-06-26T05:48:41;8.30;;;2.78;;
9418;SDS011;4748;50.802;7.132;2023-06-26T05:51:06;3.10;;;1.88;;
9418;SDS011;4748;50.802;7.132;2023-06-26T05:53:32;5.20;;;2.50;;
9418;SDS011;4748;50.802;7.132;2023-06-26T05:55:58;1.77;;;1.67;;
9418;SDS011;4748;50.802;7.132;2023-06-26T05:58:23;2.05;;;1.70;;
9418;SDS011;4748;50.802;7.132;2023-06-26T06:00:52;1.88;;;1.48;;
9418;SDS011;4748;50.802;7.132;2023-06-26T06:03:17;2.00;;;1.80;;
9418;SDS011;4748;50.802;7.132;2023-06-26T06:05:43;18.50;;;2.00;;
9418;SDS011;4748;50.802;7.132;2023-06-26T06:08:08;1.40;;;1.30;;
9418;SDS011;4748;50.802;7.132;2023-06-26T06:10:34;4.18;;;2.10;;
9418;SDS011;4748;50.802;7.132;2023-06-26T06:12:59;1.33;;;1.23;;
9418;SDS011;4748;50.802;7.132;2023-06-26T06:15:25;1.27;;;1.15;;
9418;SDS011;4748;50.802;7.132;2023-06-26T06:17:50;1.42;;;1.33;;
9418;SDS011;4748;50.802;7.132;2023-06-26T06:20:16;4.30;;;1.80;;
9418;SDS011;4748;50.802;7.132;2023-06-26T06:22:44;1.05;;;1.05;;
9418;SDS011;4748;50.802;7.132;2023-06-26T06:25:09;6.95;;;1.80;;
9418;SDS011;4748;50.802;7.132;2023-06-26T06:27:35;2.50;;;2.17;;
9418;SDS011;4748;50.802;7.132;2023-06-26T06:30:00;3.10;;;1.67;;
9418;SDS011;4748;50.802;7.132;2023-06-26T06:32:25;2.58;;;1.52;;
9418;SDS011;4748;50.802;7.132;2023-06-26T06:34:51;3.22;;;2.10;;
9418;SDS011;4748;50.802;7.132;2023-06-26T06:37:16;2.08;;;1.60;;
9418;SDS011;4748;50.802;7.132;2023-06-26T06:39:41;1.50;;;1.40;;
9418;SDS011;4748;50.802;7.132;2023-06-26T06:42:07;3.22;;;1.60;;
9418;SDS011;4748;50.802;7.132;2023-06-26T06:44:33;6.60;;;1.77;;
9418;SDS011;4748;50.802;7.132;2023-06-26T06:46:58;2.95;;;1.88;;
9418;SDS011;4748;50.802;7.132;2023-06-26T06:49:23;2.78;;;1.77;;
9418;SDS011;4748;50.802;7.132;2023-06-26T06:51:49;2.05;;;1.42;;
9418;SDS011;4748;50.802;7.132;2023-06-26T06:54:15;4.15;;;1.20;;
9418;SDS011;4748;50.802;7.132;2023-06-26T06:56:41;5.07;;;1.60;;
9418;SDS011;4748;50.802;7.132;2023-06-26T06:59:07;3.97;;;1.90;;
9418;SDS011;4748;50.802;7.132;2023-06-26T07:01:32;2.83;;;1.38;;
9418;SDS011;4748;50.802;7.132;2023-06-26T07:03:58;4.35;;;1.80;;
9418;SDS011;4748;50.802;7.132;2023-06-26T07:06:23;2.35;;;1.23;;
9418;SDS011;4748;50.802;7.132;2023-06-26T07:08:48;4.13;;;1.52;;
9418;SDS011;4748;50.802;7.132;2023-06-26T07:11:14;3.83;;;1.88;;
9418;SDS011;4748;50.802;7.132;2023-06-26T07:13:40;1.23;;;1.13;;
9418;SDS011;4748;50.802;7.132;2023-06-26T07:16:05;3.42;;;1.52;;
9418;SDS011;4748;50.802;7.132;2023-06-26T07:18:31;1.63;;;1.27;;
9418;SDS011;4748;50.802;7.132;2023-06-26T07:20:56;1.85;;;1.45;;
9418;SDS011;4748;50.802;7.132;2023-06-26T07:23:23;1.85;;;1.30;;
9418;SDS011;4748;50.802;7.132;2023-06-26T07:25:48;3.15;;;1.65;;
9418;SDS011;4748;50.802;7.132;2023-06-26T07:28:14;1.85;;;1.70;;
9418;SDS011;4748;50.802;7.132;2023-06-26T07:30:39;1.98;;;1.63;;
9418;SDS011;4748;50.802;7.132;2023-06-26T07:33:04;4.55;;;1.67;;
9418;SDS011;4748;50.802;7.132;2023-06-26T07:35:30;1.13;;;1.08;;
9418;SDS011;4748;50.802;7.132;2023-06-26T07:37:55;10.05;;;1.85;;
9418;SDS011;4748;50.802;7.132;2023-06-26T07:40:21;3.92;;;1.70;;
9418;SDS011;4748;50.802;7.132;2023-06-26T07:42:46;8.05;;;1.98;;
9418;SDS011;4748;50.802;7.132;2023-06-26T07:45:12;9.52;;;1.83;;
9418;SDS011;4748;50.802;7.132;2023-06-26T07:47:37;2.35;;;1.63;;
9418;SDS011;4748;50.802;7.132;2023-06-26T07:50:03;9.25;;;2.42;;
9418;SDS011;4748;50.802;7.132;2023-06-26T07:52:29;3.17;;;1.35;;
9418;SDS011;4748;50.802;7.132;2023-06-26T07:54:57;7.40;;;2.22;;
9418;SDS011;4748;50.802;7.132;2023-06-26T07:57:23;5.28;;;1.85;;
9418;SDS011;4748;50.802;7.132;2023-06-26T07:59:49;6.15;;;1.88;;
9418;SDS011;4748;50.802;7.132;2023-06-26T08:02:15;5.78;;;2.63;;
9418;SDS011;4748;50.802;7.132;2023-06-26T08:04:40;4.50;;;2.25;;
9418;SDS011;4748;50.802;7.132;2023-06-26T08:07:06;2.30;;;2.13;;
9418;SDS011;4748;50.802;7.132;2023-06-26T08:09:32;2.47;;;2.15;;
9418;SDS011;4748;50.802;7.132;2023-06-26T08:11:57;5.00;;;2.97;;
9418;SDS011;4748;50.802;7.132;2023-06-26T08:14:23;3.83;;;2.10;;
9418;SDS011;4748;50.802;7.132;2023-06-26T08:16:49;2.45;;;2.25;;
9418;SDS011;4748;50.802;7.132;2023-06-26T08:19:15;5.32;;;2.40;;
9418;SDS011;4748;50.802;7.132;2023-06-26T08:21:41;3.33;;;2.13;;
9418;SDS011;4748;50.802;7.132;2023-06-26T08:24:10;1.70;;;1.60;;
9418;SDS011;4748;50.802;7.132;2023-06-26T08:26:36;8.13;;;2.47;;
9418;SDS011;4748;50.802;7.132;2023-06-26T08:29:02;4.50;;;1.88;;
9418;SDS011;4748;50.802;7.132;2023-06-26T08:31:33;2.97;;;1.60;;
9418;SDS011;4748;50.802;7.132;2023-06-26T08:34:02;4.07;;;1.88;;
9418;SDS011;4748;50.802;7.132;2023-06-26T08:36:28;2.03;;;1.92;;
9418;SDS011;4748;50.802;7.132;2023-06-26T08:38:53;2.30;;;2.20;;
9418;SDS011;4748;50.802;7.132;2023-06-26T08:41:19;2.40;;;2.15;;
9418;SDS011;4748;50.802;7.132;2023-06-26T08:43:44;4.80;;;1.80;;
9418;SDS011;4748;50.802;7.132;2023-06-26T08:46:10;2.60;;;2.00;;
9418;SDS011;4748;50.802;7.132;2023-06-26T08:48:35;2.42;;;2.22;;
9418;SDS011;4748;50.802;7.132;2023-06-26T08:51:05;8.52;;;1.73;;
9418;SDS011;4748;50.802;7.132;2023-06-26T08:53:43;4.57;;;1.80;;
9418;SDS011;4748;50.802;7.132;2023-06-26T08:56:16;1.08;;;1.08;;
9418;SDS011;4748;50.802;7.132;2023-06-26T08:58:45;2.42;;;2.22;;
9418;SDS011;4748;50.802;7.132;2023-06-26T09:01:11;3.50;;;1.10;;
9418;SDS011;4748;50.802;7.132;2023-06-26T09:03:37;6.18;;;1.85;;
9418;SDS011;4748;50.802;7.132;2023-06-26T09:06:03;3.30;;;1.73;;
9418;SDS011;4748;50.802;7.132;2023-06-26T09:08:28;3.45;;;1.30;;
9418;SDS011;4748;50.802;7.132;2023-06-26T09:10:54;4.32;;;2.20;;
9418;SDS011;4748;50.802;7.132;2023-06-26T09:13:20;1.70;;;1.40;;
9418;SDS011;4748;50.802;7.132;2023-06-26T09:15:46;4.95;;;1.83;;
9418;SDS011;4748;50.802;7.132;2023-06-26T09:18:13;1.23;;;1.23;;
9418;SDS011;4748;50.802;7.132;2023-06-26T09:20:43;6.80;;;1.50;;
9418;SDS011;4748;50.802;7.132;2023-06-26T09:23:09;6.10;;;1.27;;
9418;SDS011;4748;50.802;7.132;2023-06-26T09:25:37;7.05;;;2.10;;
9418;SDS011;4748;50.802;7.132;2023-06-26T09:28:04;1.23;;;1.13;;
9418;SDS011;4748;50.802;7.132;2023-06-26T09:30:31;1.48;;;1.38;;
9418;SDS011;4748;50.802;7.132;2023-06-26T09:33:12;2.42;;;1.33;;
9418;SDS011;4748;50.802;7.132;2023-06-26T09:35:38;2.92;;;1.30;;
9418;SDS011;4748;50.802;7.132;2023-06-26T09:38:04;3.92;;;1.65;;
9418;SDS011;4748;50.802;7.132;2023-06-26T09:40:29;0.90;;;0.90;;
9418;SDS011;4748;50.802;7.132;2023-06-26T09:43:01;3.28;;;2.03;;
9418;SDS011;4748;50.802;7.132;2023-06-26T09:45:28;5.55;;;1.42;;
9418;SDS011;4748;50.802;7.132;2023-06-26T09:47:58;4.28;;;1.23;;
9418;SDS011;4748;50.802;7.132;2023-06-26T09:50:25;1.42;;;1.33;;
9418;SDS011;4748;50.802;7.132;2023-06-26T09:52:52;9.27;;;1.70;;
9418;SDS011;4748;50.802;7.132;2023-06-26T09:55:17;5.15;;;1.50;;
9418;SDS011;4748;50.802;7.132;2023-06-26T09:57:44;6.40;;;1.27;;
9418;SDS011;4748;50.802;7.132;2023-06-26T10:00:12;2.92;;;1.60;;
9418;SDS011;4748;50.802;7.132;2023-06-26T10:02:38;1.20;;;1.08;;
9418;SDS011;4748;50.802;7.132;2023-06-26T10:05:04;2.05;;;1.27;;
9418;SDS011;4748;50.802;7.132;2023-06-26T10:07:30;2.40;;;1.00;;
9418;SDS011;4748;50.802;7.132;2023-06-26T10:09:56;4.45;;;1.33;;
9418;SDS011;4748;50.802;7.132;2023-06-26T10:12:24;2.65;;;1.35;;
9418;SDS011;4748;50.802;7.132;2023-06-26T10:14:52;2.70;;;1.42;;
9418;SDS011;4748;50.802;7.132;2023-06-26T10:17:20;2.92;;;1.10;;
9418;SDS011;4748;50.802;7.132;2023-06-26T10:19:46;0.93;;;0.73;;
9418;SDS011;4748;50.802;7.132;2023-06-26T10:22:14;1.70;;;1.10;;
9418;SDS011;4748;50.802;7.132;2023-06-26T10:24:42;3.35;;;1.10;;
9418;SDS011;4748;50.802;7.132;2023-06-26T10:27:13;6.00;;;1.40;;
9418;SDS011;4748;50.802;7.132;2023-06-26T10:29:41;1.83;;;1.05;;
9418;SDS011;4748;50.802;7.132;2023-06-26T10:32:11;2.30;;;0.95;;
9418;SDS011;4748;50.802;7.132;2023-06-26T10:34:38;4.05;;;1.45;;
9418;SDS011;4748;50.802;7.132;2023-06-26T10:37:04;4.57;;;1.00;;
9418;SDS011;4748;50.802;7.132;2023-06-26T10:39:48;5.43;;;1.48;;
9418;SDS011;4748;50.802;7.132;2023-06-26T10:42:19;10.63;;;1.42;;
9418;SDS011;4748;50.802;7.132;2023-06-26T10:44:46;1.55;;;0.80;;
9418;SDS011;4748;50.802;7.132;2023-06-26T10:47:34;2.92;;;0.57;;
9418;SDS011;4748;50.802;7.132;2023-06-26T10:50:16;4.38;;;1.13;;
9418;SDS011;4748;50.802;7.132;2023-06-26T10:58:26;7.30;;;0.80;;
9418;SDS011;4748;50.802;7.132;2023-06-26T11:03:36;0.40;;;0.40;;
9418;SDS011;4748;50.802;7.132;2023-06-26T11:06:09;1.55;;;0.75;;
9418;SDS011;4748;50.802;7.132;2023-06-26T11:08:45;5.75;;;1.05;;
9418;SDS011;4748;50.802;7.132;2023-06-26T11:11:12;6.47;;;1.13;;
9418;SDS011;4748;50.802;7.132;2023-06-26T11:13:37;3.13;;;0.70;;
9418;SDS011;4748;50.802;7.132;2023-06-26T11:16:04;3.15;;;1.15;;
9418;SDS011;4748;50.802;7.132;2023-06-26T11:18:31;1.80;;;0.93;;
9418;SDS011;4748;50.802;7.132;2023-06-26T11:21:03;0.98;;;0.70;;
9418;SDS011;4748;50.802;7.132;2023-06-26T11:23:41;7.20;;;0.90;;
9418;SDS011;4748;50.802;7.132;2023-06-26T11:26:15;0.55;;;0.55;;
9418;SDS011;4748;50.802;7.132;2023-06-26T11:28:50;9.35;;;1.02;;
9418;SDS011;4748;50.802;7.132;2023-06-26T11:31:26;0.68;;;0.68;;
9418;SDS011;4748;50.802;7.132;2023-06-26T11:33:53;2.17;;;0.98;;
9418;SDS011;4748;50.802;7.132;2023-06-26T11:36:19;7.38;;;1.50;;
9418;SDS011;4748;50.802;7.132;2023-06-26T11:38:59;0.57;;;0.50;;
9418;SDS011;4748;50.802;7.132;2023-06-26T11:41:29;3.10;;;0.77;;
9418;SDS011;4748;50.802;7.132;2023-06-26T11:43:55;6.30;;;0.68;;
9418;SDS011;4748;50.802;7.132;2023-06-26T11:46:25;1.00;;;0.85;;
9418;SDS011;4748;50.802;7.132;2023-06-26T11:48:50;1.83;;;0.60;;
9418;SDS011;4748;50.802;7.132;2023-06-26T11:51:17;3.28;;;1.00;;
9418;SDS011;4748;50.802;7.132;2023-06-26T11:53:43;2.33;;;0.63;;
9418;SDS011;4748;50.802;7.132;2023-06-26T11:56:19;1.23;;;0.85;;
9418;SDS011;4748;50.802;7.132;2023-06-26T11:59:06;2.60;;;0.95;;
9418;SDS011;4748;50.802;7.132;2023-06-26T12:01:37;0.98;;;0.70;;
9418;SDS011;4748;50.802;7.132;2023-06-26T12:04:05;1.23;;;0.68;;
9418;SDS011;4748;50.802;7.132;2023-06-26T12:06:33;7.32;;;0.60;;
9418;SDS011;4748;50.802;7.132;2023-06-26T12:09:00;6.88;;;0.68;;
9418;SDS011;4748;50.802;7.132;2023-06-26T12:11:31;1.13;;;0.60;;
9418;SDS011;4748;50.802;7.132;2023-06-26T12:13:57;4.90;;;0.73;;
9418;SDS011;4748;50.802;7.132;2023-06-26T12:16:24;1.05;;;0.80;;
9418;SDS011;4748;50.802;7.132;2023-06-26T12:18:50;12.30;;;1.02;;
9418;SDS011;4748;50.802;7.132;2023-06-26T12:24:03;4.32;;;0.60;;
9418;SDS011;4748;50.802;7.132;2023-06-26T12:26:29;2.28;;;0.52;;
9418;SDS011;4748;50.802;7.132;2023-06-26T12:29:01;2.40;;;0.65;;
9418;SDS011;4748;50.802;7.132;2023-06-26T12:31:39;1.83;;;0.52;;
9418;SDS011;4748;50.802;7.132;2023-06-26T12:34:10;1.65;;;0.50;;
9418;SDS011;4748;50.802;7.132;2023-06-26T12:36:50;2.20;;;0.80;;
9418;SDS011;4748;50.802;7.132;2023-06-26T12:39:16;2.65;;;1.02;;
9418;SDS011;4748;50.802;7.132;2023-06-26T12:41:47;1.02;;;1.00;;
9418;SDS011;4748;50.802;7.132;2023-06-26T12:44:25;7.55;;;0.80;;
9418;SDS011;4748;50.802;7.132;2023-06-26T12:47:01;0.47;;;0.45;;
9418;SDS011;4748;50.802;7.132;2023-06-26T12:49:30;4.10;;;0.73;;
9418;SDS011;4748;50.802;7.132;2023-06-26T12:51:57;4.05;;;0.80;;
9418;SDS011;4748;50.802;7.132;2023-06-26T12:54:23;3.05;;;0.60;;
9418;SDS011;4748;50.802;7.132;2023-06-26T12:56:49;3.40;;;0.70;;
9418;SDS011;4748;50.802;7.132;2023-06-26T12:59:15;1.88;;;0.68;;
9418;SDS011;4748;50.802;7.132;2023-06-26T13:01:40;2.72;;;1.02;;
9418;SDS011;4748;50.802;7.132;2023-06-26T13:04:06;0.60;;;0.60;;
9418;SDS011;4748;50.802;7.132;2023-06-26T13:06:33;3.92;;;1.35;;
9418;SDS011;4748;50.802;7.132;2023-06-26T13:08:58;2.03;;;0.88;;
9418;SDS011;4748;50.802;7.132;2023-06-26T13:11:24;0.63;;;0.60;;
9418;SDS011;4748;50.802;7.132;2023-06-26T13:13:49;4.43;;;1.15;;
9418;SDS011;4748;50.802;7.132;2023-06-26T13:16:16;3.42;;;0.80;;
9418;SDS011;4748;50.802;7.132;2023-06-26T13:18:43;1.17;;;0.50;;
9418;SDS011;4748;50.802;7.132;2023-06-26T13:21:09;1.70;;;0.77;;
9418;SDS011;4748;50.802;7.132;2023-06-26T13:23:34;6.97;;;0.60;;
9418;SDS011;4748;50.802;7.132;2023-06-26T13:26:01;12.07;;;0.90;;
9418;SDS011;4748;50.802;7.132;2023-06-26T13:28:26;2.15;;;0.52;;
9418;SDS011;4748;50.802;7.132;2023-06-26T13:30:51;1.48;;;0.40;;
9418;SDS011;4748;50.802;7.132;2023-06-26T13:33:17;1.60;;;0.50;;
9418;SDS011;4748;50.802;7.132;2023-06-26T13:35:42;3.28;;;0.50;;
9418;SDS011;4748;50.802;7.132;2023-06-26T13:38:07;1.95;;;0.38;;
9418;SDS011;4748;50.802;7.132;2023-06-26T13:40:33;1.10;;;0.22;;
9418;SDS011;4748;50.802;7.132;2023-06-26T13:42:58;1.15;;;0.40;;
9418;SDS011;4748;50.802;7.132;2023-06-26T13:45:25;1.75;;;0.43;;
9418;SDS011;4748;50.802;7.132;2023-06-26T13:47:50;1.75;;;0.40;;
9418;SDS011;4748;50.802;7.132;2023-06-26T13:50:15;2.45;;;0.30;;
9418;SDS011;4748;50.802;7.132;2023-06-26T13:52:41;0.40;;;0.40;;
9418;SDS011;4748;50.802;7.132;2023-06-26T13:55:06;1.35;;;0.40;;
9418;SDS011;4748;50.802;7.132;2023-06-26T13:57:32;4.97;;;0.50;;
9418;SDS011;4748;50.802;7.132;2023-06-26T13:59:58;0.22;;;0.22;;
9418;SDS011;4748;50.802;7.132;2023-06-26T14:02:23;2.08;;;0.43;;
9418;SDS011;4748;50.802;7.132;2023-06-26T14:04:48;3.05;;;0.45;;
9418;SDS011;4748;50.802;7.132;2023-06-26T14:07:14;0.75;;;0.40;;
9418;SDS011;4748;50.802;7.132;2023-06-26T14:09:39;2.88;;;0.32;;
9418;SDS011;4748;50.802;7.132;2023-06-26T14:12:05;4.25;;;0.40;;
9418;SDS011;4748;50.802;7.132;2023-06-26T14:14:32;1.65;;;0.40;;
9418;SDS011;4748;50.802;7.132;2023-06-26T14:16:57;0.63;;;0.30;;
9418;SDS011;4748;50.802;7.132;2023-06-26T14:19:24;0.30;;;0.20;;
9418;SDS011;4748;50.802;7.132;2023-06-26T14:21:50;11.40;;;0.40;;
9418;SDS011;4748;50.802;7.132;2023-06-26T14:24:16;1.85;;;0.52;;
9418;SDS011;4748;50.802;7.132;2023-06-26T14:26:41;0.95;;;0.40;;
9418;SDS011;4748;50.802;7.132;2023-06-26T14:29:06;0.40;;;0.40;;
9418;SDS011;4748;50.802;7.132;2023-06-26T14:31:32;0.57;;;0.43;;
9418;SDS011;4748;50.802;7.132;2023-06-26T14:33:57;0.95;;;0.50;;
9418;SDS011;4748;50.802;7.132;2023-06-26T14:36:24;2.30;;;0.50;;
9418;SDS011;4748;50.802;7.132;2023-06-26T14:38:49;2.30;;;0.82;;
9418;SDS011;4748;50.802;7.132;2023-06-26T14:41:15;0.40;;;0.40;;
9418;SDS011;4748;50.802;7.132;2023-06-26T14:43:40;0.63;;;0.40;;
9418;SDS011;4748;50.802;7.132;2023-06-26T14:46:05;2.33;;;0.50;;
9418;SDS011;4748;50.802;7.132;2023-06-26T14:48:31;0.60;;;0.40;;
9418;SDS011;4748;50.802;7.132;2023-06-26T14:50:56;4.57;;;0.32;;
9418;SDS011;4748;50.802;7.132;2023-06-26T14:53:21;7.03;;;0.40;;
9418;SDS011;4748;50.802;7.132;2023-06-26T14:55:47;7.43;;;0.30;;
9418;SDS011;4748;50.802;7.132;2023-06-26T14:58:12;1.02;;;0.60;;
9418;SDS011;4748;50.802;7.132;2023-06-26T15:00:38;0.32;;;0.32;;
9418;SDS011;4748;50.802;7.132;2023-06-26T15:03:03;5.25;;;0.60;;
9418;SDS011;4748;50.802;7.132;2023-06-26T15:05:28;4.38;;;0.70;;
9418;SDS011;4748;50.802;7.132;2023-06-26T15:07:54;2.08;;;0.30;;
9418;SDS011;4748;50.802;7.132;2023-06-26T15:10:19;2.75;;;0.40;;
9418;SDS011;4748;50.802;7.132;2023-06-26T15:12:46;2.08;;;0.60;;
9418;SDS011;4748;50.802;7.132;2023-06-26T15:15:11;14.60;;;0.40;;
9418;SDS011;4748;50.802;7.132;2023-06-26T15:17:37;4.53;;;0.40;;
9418;SDS011;4748;50.802;7.132;2023-06-26T15:20:03;1.58;;;0.40;;
9418;SDS011;4748;50.802;7.132;2023-06-26T15:22:29;0.60;;;0.60;;
9418;SDS011;4748;50.802;7.132;2023-06-26T15:24:54;1.20;;;0.47;;
9418;SDS011;4748;50.802;7.132;2023-06-26T15:27:19;1.88;;;0.47;;
9418;SDS011;4748;50.802;7.132;2023-06-26T15:29:45;6.05;;;0.80;;
9418;SDS011;4748;50.802;7.132;2023-06-26T15:32:10;0.40;;;0.40;;
9418;SDS011;4748;50.802;7.132;2023-06-26T15:34:36;1.95;;;0.30;;
9418;SDS011;4748;50.802;7.132;2023-06-26T15:37:01;3.83;;;0.60;;
9418;SDS011;4748;50.802;7.132;2023-06-26T15:39:27;0.63;;;0.63;;
9418;SDS011;4748;50.802;7.132;2023-06-26T15:41:52;1.50;;;0.63;;
9418;SDS011;4748;50.802;7.132;2023-06-26T15:44:18;8.35;;;0.50;;
9418;SDS011;4748;50.802;7.132;2023-06-26T15:46:43;3.03;;;0.77;;
9418;SDS011;4748;50.802;7.132;2023-06-26T15:49:09;2.70;;;0.60;;
9418;SDS011;4748;50.802;7.132;2023-06-26T15:51:34;1.25;;;0.40;;
9418;SDS011;4748;50.802;7.132;2023-06-26T15:54:02;0.90;;;0.50;;
9418;SDS011;4748;50.802;7.132;2023-06-26T15:56:28;0.22;;;0.22;;
9418;SDS011;4748;50.802;7.132;2023-06-26T15:58:54;0.30;;;0.30;;
9418;SDS011;4748;50.802;7.132;2023-06-26T16:01:20;1.60;;;0.60;;
9418;SDS011;4748;50.802;7.132;2023-06-26T16:03:45;0.35;;;0.35;;
9418;SDS011;4748;50.802;7.132;2023-06-26T16:06:11;3.42;;;0.40;;
9418;SDS011;4748;50.802;7.132;2023-06-26T16:08:36;1.02;;;0.32;;
9418;SDS011;4748;50.802;7.132;2023-06-26T16:11:02;3.38;;;0.55;;
9418;SDS011;4748;50.802;7.132;2023-06-26T16:13:29;0.45;;;0.45;;
9418;SDS011;4748;50.802;7.132;2023-06-26T16:15:55;4.90;;;0.50;;
9418;SDS011;4748;50.802;7.132;2023-06-26T16:18:21;1.92;;;0.47;;
9418;SDS011;4748;50.802;7.132;2023-06-26T16:20:47;0.57;;;0.57;;
9418;SDS011;4748;50.802;7.132;2023-06-26T16:23:12;0.68;;;0.40;;
9418;SDS011;4748;50.802;7.132;2023-06-26T16:25:39;1.48;;;0.57;;
9418;SDS011;4748;50.802;7.132;2023-06-26T16:28:05;0.55;;;0.50;;
9418;SDS011;4748;50.802;7.132;2023-06-26T16:30:30;2.90;;;0.60;;
9418;SDS011;4748;50.802;7.132;2023-06-26T16:32:56;0.65;;;0.40;;
9418;SDS011;4748;50.802;7.132;2023-06-26T16:35:24;2.92;;;1.30;;
9418;SDS011;4748;50.802;7.132;2023-06-26T16:37:55;0.82;;;0.50;;
9418;SDS011;4748;50.802;7.132;2023-06-26T16:40:21;4.60;;;0.60;;
9418;SDS011;4748;50.802;7.132;2023-06-26T16:42:48;1.92;;;0.68;;
9418;SDS011;4748;50.802;7.132;2023-06-26T16:45:14;2.47;;;0.38;;
9418;SDS011;4748;50.802;7.132;2023-06-26T16:47:39;0.75;;;0.52;;
9418;SDS011;4748;50.802;7.132;2023-06-26T16:50:06;0.40;;;0.40;;
9418;SDS011;4748;50.802;7.132;2023-06-26T16:52:32;0.90;;;0.30;;
9418;SDS011;4748;50.802;7.132;2023-06-26T16:54:57;5.88;;;0.50;;
9418;SDS011;4748;50.802;7.132;2023-06-26T16:57:23;1.42;;;0.50;;
9418;SDS011;4748;50.802;7.132;2023-06-26T16:59:48;1.48;;;0.40;;
9418;SDS011;4748;50.802;7.132;2023-06-26T17:02:14;2.03;;;0.73;;
9418;SDS011;4748;50.802;7.132;2023-06-26T17:04:39;0.85;;;0.40;;
9418;SDS011;4748;50.802;7.132;2023-06-26T17:07:05;1.23;;;0.60;;
9418;SDS011;4748;50.802;7.132;2023-06-26T17:09:31;2.92;;;0.52;;
9418;SDS011;4748;50.802;7.132;2023-06-26T17:11:56;7.10;;;0.60;;
9418;SDS011;4748;50.802;7.132;2023-06-26T17:14:22;3.90;;;0.40;;
9418;SDS011;4748;50.802;7.132;2023-06-26T17:16:48;0.70;;;0.28;;
9418;SDS011;4748;50.802;7.132;2023-06-26T17:19:13;4.38;;;0.60;;
9418;SDS011;4748;50.802;7.132;2023-06-26T17:21:38;12.77;;;0.65;;
9418;SDS011;4748;50.802;7.132;2023-06-26T17:24:04;0.85;;;0.40;;
9418;SDS011;4748;50.802;7.132;2023-06-26T17:26:29;0.30;;;0.30;;
9418;SDS011;4748;50.802;7.132;2023-06-26T17:28:56;2.33;;;0.50;;
9418;SDS011;4748;50.802;7.132;2023-06-26T17:31:21;0.70;;;0.50;;
9418;SDS011;4748;50.802;7.132;2023-06-26T17:33:47;3.92;;;0.68;;
9418;SDS011;4748;50.802;7.132;2023-06-26T17:36:12;0.60;;;0.40;;
9418;SDS011;4748;50.802;7.132;2023-06-26T17:38:37;2.95;;;0.47;;
9418;SDS011;4748;50.802;7.132;2023-06-26T17:41:04;0.93;;;0.50;;
9418;SDS011;4748;50.802;7.132;2023-06-26T17:43:30;3.13;;;0.45;;
9418;SDS011;4748;50.802;7.132;2023-06-26T17:45:55;0.40;;;0.40;;
9418;SDS011;4748;50.802;7.132;2023-06-26T17:48:21;0.40;;;0.35;;
9418;SDS011;4748;50.802;7.132;2023-06-26T17:50:47;0.40;;;0.40;;
9418;SDS011;4748;50.802;7.132;2023-06-26T17:53:14;1.00;;;0.30;;
9418;SDS011;4748;50.802;7.132;2023-06-26T17:55:39;0.45;;;0.35;;
9418;SDS011;4748;50.802;7.132;2023-06-26T17:58:04;0.20;;;0.20;;
9418;SDS011;4748;50.802;7.132;2023-06-26T18:00:30;0.63;;;0.30;;
9418;SDS011;4748;50.802;7.132;2023-06-26T18:02:55;0.80;;;0.50;;
9418;SDS011;4748;50.802;7.132;2023-06-26T18:05:21;0.43;;;0.28;;
9418;SDS011;4748;50.802;7.132;2023-06-26T18:07:47;0.90;;;0.30;;
9418;SDS011;4748;50.802;7.132;2023-06-26T18:10:13;0.45;;;0.40;;
9418;SDS011;4748;50.802;7.132;2023-06-26T18:12:38;0.30;;;0.30;;
9418;SDS011;4748;50.802;7.132;2023-06-26T18:15:04;2.05;;;0.30;;
9418;SDS011;4748;50.802;7.132;2023-06-26T18:17:30;0.52;;;0.30;;
9418;SDS011;4748;50.802;7.132;2023-06-26T18:19:56;3.35;;;1.02;;
9418;SDS011;4748;50.802;7.132;2023-06-26T18:22:21;0.52;;;0.52;;
9418;SDS011;4748;50.802;7.132;2023-06-26T18:24:46;0.63;;;0.60;;
9418;SDS011;4748;50.802;7.132;2023-06-26T18:27:12;2.83;;;0.43;;
9418;SDS011;4748;50.802;7.132;2023-06-26T18:29:37;0.38;;;0.38;;
9418;SDS011;4748;50.802;7.132;2023-06-26T18:32:03;0.30;;;0.30;;
9418;SDS011;4748;50.802;7.132;2023-06-26T18:34:29;0.30;;;0.30;;
9418;SDS011;4748;50.802;7.132;2023-06-26T18:36:54;0.35;;;0.30;;
9418;SDS011;4748;50.802;7.132;2023-06-26T18:39:22;0.93;;;0.45;;
9418;SDS011;4748;50.802;7.132;2023-06-26T18:41:47;0.68;;;0.20;;
9418;SDS011;4748;50.802;7.132;2023-06-26T18:44:13;1.65;;;0.38;;
9418;SDS011;4748;50.802;7.132;2023-06-26T18:46:39;0.30;;;0.30;;
9418;SDS011;4748;50.802;7.132;2023-06-26T18:49:05;0.30;;;0.22;;
9418;SDS011;4748;50.802;7.132;2023-06-26T18:51:30;3.50;;;0.47;;
9418;SDS011;4748;50.802;7.132;2023-06-26T18:53:56;1.88;;;0.30;;